sensor_id;sensor_type;location;lat;lon;timestamp;P1;durP1;ratioP1;P2;durP2;ratioP2
5022;SDS011;2530;47.990;7.866;2024-03-25T00:01:37;2.90;;;2.47;;
5022;SDS011;2530;47.990;7.866;2024-03-25T00:04:03;4.53;;;2.40;;
5022;SDS011;2530;47.990;7.866;2024-03-25T00:06:29;2.37;;;2.17;;
5022;SDS011;2530;47.990;7.866;2024-03-25T00:08:58;3.67;;;2.45;;
5022;SDS011;2530;47.990;7.866;2024-03-25T00:11:26;3.42;;;2.10;;
5022;SDS011;2530;47.990;7.866;2024-03-25T00:13:52;3.13;;;2.00;;
5022;SDS011;2530;47.990;7.866;2024-03-25T00:16:18;2.50;;;2.30;;
5022;SDS011;2530;47.990;7.866;2024-03-25T00:18:43;4.00;;;2.30;;
5022;SDS011;2530;47.990;7.866;2024-03-25T00:21:09;2.97;;;2.00;;
5022;SDS011;2530;47.990;7.866;2024-03-25T00:23:34;3.40;;;2.10;;
5022;SDS011;2530;47.990;7.866;2024-03-25T00:26:00;2.40;;;1.80;;
5022;SDS011;2530;47.990;7.866;2024-03-25T00:28:26;4.60;;;1.93;;
5022;SDS011;2530;47.990;7.866;2024-03-25T00:30:51;4.17;;;2.30;;
5022;SDS011;2530;47.990;7.866;2024-03-25T00:33:17;3.20;;;2.00;;
5022;SDS011;2530;47.990;7.866;2024-03-25T00:35:43;3.10;;;1.80;;
5022;SDS011;2530;47.990;7.866;2024-03-25T00:38:10;3.45;;;1.80;;
5022;SDS011;2530;47.990;7.866;2024-03-25T00:40:36;5.10;;;2.33;;
5022;SDS011;2530;47.990;7.866;2024-03-25T00:43:02;4.78;;;2.35;;
5022;SDS011;2530;47.990;7.866;2024-03-25T00:45:28;2.30;;;1.92;;
5022;SDS011;2530;47.990;7.866;2024-03-25T00:47:56;2.47;;;2.03;;
5022;SDS011;2530;47.990;7.866;2024-03-25T00:50:23;3.00;;;2.50;;
5022;SDS011;2530;47.990;7.866;2024-03-25T00:52:48;3.55;;;2.20;;
5022;SDS011;2530;47.990;7.866;2024-03-25T00:55:14;2.57;;;2.37;;
5022;SDS011;2530;47.990;7.866;2024-03-25T00:57:39;3.00;;;2.20;;
5022;SDS011;2530;47.990;7.866;2024-03-25T01:00:06;4.20;;;2.30;;
5022;SDS011;2530;47.990;7.866;2024-03-25T01:02:32;2.50;;;2.30;;
5022;SDS011;2530;47.990;7.866;2024-03-25T01:04:58;3.20;;;2.50;;
5022;SDS011;2530;47.990;7.866;2024-03-25T01:07:24;2.40;;;2.00;;
5022;SDS011;2530;47.990;7.866;2024-03-25T01:09:50;3.33;;;2.50;;
5022;SDS011;2530;47.990;7.866;2024-03-25T01:12:16;3.67;;;2.23;;
5022;SDS011;2530;47.990;7.866;2024-03-25T01:14:41;2.23;;;1.90;;
5022;SDS011;2530;47.990;7.866;2024-03-25T01:17:07;3.40;;;2.10;;
5022;SDS011;2530;47.990;7.866;2024-03-25T01:19:33;3.45;;;2.30;;
5022;SDS011;2530;47.990;7.866;2024-03-25T01:21:58;3.20;;;2.00;;
5022;SDS011;2530;47.990;7.866;2024-03-25T01:24:24;4.30;;;2.60;;
5022;SDS011;2530;47.990;7.866;2024-03-25T01:26:50;3.00;;;2.00;;
5022;SDS011;2530;47.990;7.866;2024-03-25T01:29:16;3.50;;;2.10;;
5022;SDS011;2530;47.990;7.866;2024-03-25T01:31:43;3.03;;;1.98;;
5022;SDS011;2530;47.990;7.866;2024-03-25T01:34:09;2.63;;;1.90;;
5022;SDS011;2530;47.990;7.866;2024-03-25T01:36:35;3.20;;;2.30;;
5022;SDS011;2530;47.990;7.866;2024-03-25T01:39:00;3.63;;;2.00;;
5022;SDS011;2530;47.990;7.866;2024-03-25T01:41:26;2.22;;;2.03;;
5022;SDS011;2530;47.990;7.866;2024-03-25T01:43:52;2.13;;;1.80;;
5022;SDS011;2530;47.990;7.866;2024-03-25T01:46:18;2.22;;;2.03;;
5022;SDS011;2530;47.990;7.866;2024-03-25T01:48:44;2.33;;;2.10;;
5022;SDS011;2530;47.990;7.866;2024-03-25T01:51:11;2.80;;;1.90;;
5022;SDS011;2530;47.990;7.866;2024-03-25T01:53:39;2.60;;;2.40;;
5022;SDS011;2530;47.990;7.866;2024-03-25T01:56:05;2.78;;;1.80;;
5022;SDS011;2530;47.990;7.866;2024-03-25T01:58:32;2.92;;;2.33;;
5022;SDS011;2530;47.990;7.866;2024-03-25T02:00:58;2.97;;;2.10;;
5022;SDS011;2530;47.990;7.866;2024-03-25T02:03:26;2.60;;;2.00;;
5022;SDS011;2530;47.990;7.866;2024-03-25T02:05:53;3.92;;;1.90;;
5022;SDS011;2530;47.990;7.866;2024-03-25T02:08:22;3.03;;;2.30;;
5022;SDS011;2530;47.990;7.866;2024-03-25T02:10:47;2.75;;;1.95;;
5022;SDS011;2530;47.990;7.866;2024-03-25T02:13:14;2.40;;;1.90;;
5022;SDS011;2530;47.990;7.866;2024-03-25T02:15:41;3.13;;;2.30;;
5022;SDS011;2530;47.990;7.866;2024-03-25T02:18:07;3.03;;;2.10;;
5022;SDS011;2530;47.990;7.866;2024-03-25T02:20:32;2.43;;;2.23;;
5022;SDS011;2530;47.990;7.866;2024-03-25T02:22:58;3.43;;;2.40;;
5022;SDS011;2530;47.990;7.866;2024-03-25T02:25:23;2.50;;;1.80;;
5022;SDS011;2530;47.990;7.866;2024-03-25T02:27:49;3.28;;;2.22;;
5022;SDS011;2530;47.990;7.866;2024-03-25T02:30:15;5.03;;;2.30;;
5022;SDS011;2530;47.990;7.866;2024-03-25T02:32:41;2.65;;;2.10;;
5022;SDS011;2530;47.990;7.866;2024-03-25T02:35:10;3.10;;;2.10;;
5022;SDS011;2530;47.990;7.866;2024-03-25T02:37:39;2.75;;;2.53;;
5022;SDS011;2530;47.990;7.866;2024-03-25T02:40:05;4.20;;;2.00;;
5022;SDS011;2530;47.990;7.866;2024-03-25T02:42:32;3.60;;;2.45;;
5022;SDS011;2530;47.990;7.866;2024-03-25T02:44:58;2.70;;;2.15;;
5022;SDS011;2530;47.990;7.866;2024-03-25T02:47:24;2.78;;;2.30;;
5022;SDS011;2530;47.990;7.866;2024-03-25T02:49:50;3.33;;;2.28;;
5022;SDS011;2530;47.990;7.866;2024-03-25T02:52:16;3.08;;;2.25;;
5022;SDS011;2530;47.990;7.866;2024-03-25T02:54:42;3.42;;;2.60;;
5022;SDS011;2530;47.990;7.866;2024-03-25T02:57:07;3.30;;;2.78;;
5022;SDS011;2530;47.990;7.866;2024-03-25T02:59:33;3.00;;;2.40;;
5022;SDS011;2530;47.990;7.866;2024-03-25T03:01:58;2.40;;;2.20;;
5022;SDS011;2530;47.990;7.866;2024-03-25T03:04:24;2.80;;;2.30;;
5022;SDS011;2530;47.990;7.866;2024-03-25T03:06:49;3.93;;;2.67;;
5022;SDS011;2530;47.990;7.866;2024-03-25T03:09:15;3.43;;;2.90;;
5022;SDS011;2530;47.990;7.866;2024-03-25T03:11:41;2.87;;;2.27;;
5022;SDS011;2530;47.990;7.866;2024-03-25T03:14:06;3.90;;;2.53;;
5022;SDS011;2530;47.990;7.866;2024-03-25T03:16:32;3.22;;;2.53;;
5022;SDS011;2530;47.990;7.866;2024-03-25T03:18:57;4.38;;;2.80;;
5022;SDS011;2530;47.990;7.866;2024-03-25T03:21:23;3.38;;;2.60;;
5022;SDS011;2530;47.990;7.866;2024-03-25T03:23:48;2.70;;;2.50;;
5022;SDS011;2530;47.990;7.866;2024-03-25T03:26:14;3.70;;;2.43;;
5022;SDS011;2530;47.990;7.866;2024-03-25T03:28:40;4.97;;;2.20;;
5022;SDS011;2530;47.990;7.866;2024-03-25T03:31:05;2.70;;;2.30;;
5022;SDS011;2530;47.990;7.866;2024-03-25T03:33:31;5.10;;;2.80;;
5022;SDS011;2530;47.990;7.866;2024-03-25T03:35:57;3.20;;;2.35;;
5022;SDS011;2530;47.990;7.866;2024-03-25T03:38:22;2.72;;;2.42;;
5022;SDS011;2530;47.990;7.866;2024-03-25T03:43:27;3.22;;;2.50;;
5022;SDS011;2530;47.990;7.866;2024-03-25T03:45:53;3.00;;;2.60;;
5022;SDS011;2530;47.990;7.866;2024-03-25T03:48:18;3.90;;;2.60;;
5022;SDS011;2530;47.990;7.866;2024-03-25T03:50:44;3.30;;;2.60;;
5022;SDS011;2530;47.990;7.866;2024-03-25T03:53:10;4.30;;;2.43;;
5022;SDS011;2530;47.990;7.866;2024-03-25T03:55:36;3.80;;;2.40;;
5022;SDS011;2530;47.990;7.866;2024-03-25T03:58:02;4.35;;;2.70;;
5022;SDS011;2530;47.990;7.866;2024-03-25T04:00:28;4.22;;;2.38;;
5022;SDS011;2530;47.990;7.866;2024-03-25T04:02:54;2.90;;;2.60;;
5022;SDS011;2530;47.990;7.866;2024-03-25T04:05:19;4.00;;;2.30;;
5022;SDS011;2530;47.990;7.866;2024-03-25T04:07:45;3.40;;;2.80;;
5022;SDS011;2530;47.990;7.866;2024-03-25T04:10:10;4.87;;;2.53;;
5022;SDS011;2530;47.990;7.866;2024-03-25T04:12:36;3.70;;;2.90;;
5022;SDS011;2530;47.990;7.866;2024-03-25T04:15:03;4.65;;;2.83;;
5022;SDS011;2530;47.990;7.866;2024-03-25T04:17:28;3.10;;;2.72;;
5022;SDS011;2530;47.990;7.866;2024-03-25T04:19:54;4.20;;;2.80;;
5022;SDS011;2530;47.990;7.866;2024-03-25T04:22:19;4.60;;;2.90;;
5022;SDS011;2530;47.990;7.866;2024-03-25T04:24:45;4.00;;;3.10;;
5022;SDS011;2530;47.990;7.866;2024-03-25T04:27:11;4.23;;;3.83;;
5022;SDS011;2530;47.990;7.866;2024-03-25T04:29:37;3.30;;;3.00;;
5022;SDS011;2530;47.990;7.866;2024-03-25T04:32:02;3.63;;;3.33;;
5022;SDS011;2530;47.990;7.866;2024-03-25T04:34:29;3.70;;;3.03;;
5022;SDS011;2530;47.990;7.866;2024-03-25T04:36:55;3.67;;;2.97;;
5022;SDS011;2530;47.990;7.866;2024-03-25T04:39:21;4.80;;;3.47;;
5022;SDS011;2530;47.990;7.866;2024-03-25T04:41:47;4.63;;;3.53;;
5022;SDS011;2530;47.990;7.866;2024-03-25T04:44:12;5.17;;;2.93;;
5022;SDS011;2530;47.990;7.866;2024-03-25T04:46:38;3.63;;;2.90;;
5022;SDS011;2530;47.990;7.866;2024-03-25T04:49:03;2.83;;;2.63;;
5022;SDS011;2530;47.990;7.866;2024-03-25T04:51:29;3.67;;;2.30;;
5022;SDS011;2530;47.990;7.866;2024-03-25T04:53:56;3.50;;;2.55;;
5022;SDS011;2530;47.990;7.866;2024-03-25T04:56:22;4.53;;;3.10;;
5022;SDS011;2530;47.990;7.866;2024-03-25T04:58:47;4.57;;;2.70;;
5022;SDS011;2530;47.990;7.866;2024-03-25T05:01:13;4.00;;;2.70;;
5022;SDS011;2530;47.990;7.866;2024-03-25T05:03:39;4.00;;;3.00;;
5022;SDS011;2530;47.990;7.866;2024-03-25T05:06:04;4.87;;;2.67;;
5022;SDS011;2530;47.990;7.866;2024-03-25T05:08:30;4.15;;;2.50;;
5022;SDS011;2530;47.990;7.866;2024-03-25T05:10:56;6.22;;;2.90;;
5022;SDS011;2530;47.990;7.866;2024-03-25T05:13:21;4.80;;;2.90;;
5022;SDS011;2530;47.990;7.866;2024-03-25T05:15:50;3.55;;;2.95;;
5022;SDS011;2530;47.990;7.866;2024-03-25T05:18:17;5.00;;;3.03;;
5022;SDS011;2530;47.990;7.866;2024-03-25T05:20:42;5.93;;;3.30;;
5022;SDS011;2530;47.990;7.866;2024-03-25T05:23:08;5.83;;;3.50;;
5022;SDS011;2530;47.990;7.866;2024-03-25T05:25:34;3.93;;;3.37;;
5022;SDS011;2530;47.990;7.866;2024-03-25T05:28:00;3.20;;;2.85;;
5022;SDS011;2530;47.990;7.866;2024-03-25T05:30:26;3.50;;;3.20;;
5022;SDS011;2530;47.990;7.866;2024-03-25T05:32:51;3.00;;;2.70;;
5022;SDS011;2530;47.990;7.866;2024-03-25T05:35:17;3.95;;;2.85;;
5022;SDS011;2530;47.990;7.866;2024-03-25T05:37:43;3.30;;;2.80;;
5022;SDS011;2530;47.990;7.866;2024-03-25T05:40:09;2.60;;;2.40;;
5022;SDS011;2530;47.990;7.866;2024-03-25T05:42:36;4.70;;;2.50;;
5022;SDS011;2530;47.990;7.866;2024-03-25T05:45:02;3.22;;;2.70;;
5022;SDS011;2530;47.990;7.866;2024-03-25T05:47:28;3.42;;;2.55;;
5022;SDS011;2530;47.990;7.866;2024-03-25T05:49:54;3.27;;;2.67;;
5022;SDS011;2530;47.990;7.866;2024-03-25T05:52:19;3.40;;;3.10;;
5022;SDS011;2530;47.990;7.866;2024-03-25T05:54:45;3.38;;;2.92;;
5022;SDS011;2530;47.990;7.866;2024-03-25T05:57:11;5.20;;;3.38;;
5022;SDS011;2530;47.990;7.866;2024-03-25T05:59:37;4.20;;;2.90;;
5022;SDS011;2530;47.990;7.866;2024-03-25T06:02:02;3.50;;;3.10;;
5022;SDS011;2530;47.990;7.866;2024-03-25T06:04:28;3.30;;;3.00;;
5022;SDS011;2530;47.990;7.866;2024-03-25T06:06:53;4.47;;;3.20;;
5022;SDS011;2530;47.990;7.866;2024-03-25T06:09:19;3.40;;;3.10;;
5022;SDS011;2530;47.990;7.866;2024-03-25T06:11:44;4.10;;;2.70;;
5022;SDS011;2530;47.990;7.866;2024-03-25T06:14:10;5.40;;;3.20;;
5022;SDS011;2530;47.990;7.866;2024-03-25T06:16:35;3.93;;;2.97;;
5022;SDS011;2530;47.990;7.866;2024-03-25T06:19:01;5.45;;;2.95;;
5022;SDS011;2530;47.990;7.866;2024-03-25T06:21:27;3.10;;;2.80;;
5022;SDS011;2530;47.990;7.866;2024-03-25T06:23:53;4.75;;;2.75;;
5022;SDS011;2530;47.990;7.866;2024-03-25T06:26:19;5.07;;;3.20;;
5022;SDS011;2530;47.990;7.866;2024-03-25T06:28:45;3.27;;;2.70;;
5022;SDS011;2530;47.990;7.866;2024-03-25T06:31:10;3.27;;;2.93;;
5022;SDS011;2530;47.990;7.866;2024-03-25T06:33:55;3.28;;;2.70;;
5022;SDS011;2530;47.990;7.866;2024-03-25T06:36:39;3.75;;;2.78;;
5022;SDS011;2530;47.990;7.866;2024-03-25T06:39:05;3.30;;;3.00;;
5022;SDS011;2530;47.990;7.866;2024-03-25T06:41:31;4.05;;;2.83;;
5022;SDS011;2530;47.990;7.866;2024-03-25T06:43:56;3.30;;;2.97;;
5022;SDS011;2530;47.990;7.866;2024-03-25T06:46:22;3.10;;;2.80;;
5022;SDS011;2530;47.990;7.866;2024-03-25T06:48:48;3.70;;;2.70;;
5022;SDS011;2530;47.990;7.866;2024-03-25T06:51:13;3.60;;;3.10;;
5022;SDS011;2530;47.990;7.866;2024-03-25T06:53:39;4.60;;;2.83;;
5022;SDS011;2530;47.990;7.866;2024-03-25T06:56:04;4.55;;;3.05;;
5022;SDS011;2530;47.990;7.866;2024-03-25T06:58:30;3.80;;;2.90;;
5022;SDS011;2530;47.990;7.866;2024-03-25T07:00:56;4.30;;;2.90;;
5022;SDS011;2530;47.990;7.866;2024-03-25T07:03:28;4.70;;;3.40;;
5022;SDS011;2530;47.990;7.866;2024-03-25T07:05:53;4.07;;;2.80;;
5022;SDS011;2530;47.990;7.866;2024-03-25T07:08:20;3.28;;;2.97;;
5022;SDS011;2530;47.990;7.866;2024-03-25T07:10:46;4.15;;;3.00;;
5022;SDS011;2530;47.990;7.866;2024-03-25T07:13:12;3.58;;;3.28;;
5022;SDS011;2530;47.990;7.866;2024-03-25T07:15:38;4.07;;;2.80;;
5022;SDS011;2530;47.990;7.866;2024-03-25T07:18:04;3.50;;;2.72;;
5022;SDS011;2530;47.990;7.866;2024-03-25T07:20:31;5.10;;;3.22;;
5022;SDS011;2530;47.990;7.866;2024-03-25T07:22:56;3.78;;;2.90;;
5022;SDS011;2530;47.990;7.866;2024-03-25T07:25:22;5.22;;;3.50;;
5022;SDS011;2530;47.990;7.866;2024-03-25T07:27:49;4.20;;;2.90;;
5022;SDS011;2530;47.990;7.866;2024-03-25T07:30:15;4.38;;;2.75;;
5022;SDS011;2530;47.990;7.866;2024-03-25T07:32:40;5.47;;;3.50;;
5022;SDS011;2530;47.990;7.866;2024-03-25T07:35:06;4.17;;;2.60;;
5022;SDS011;2530;47.990;7.866;2024-03-25T07:37:33;4.57;;;2.90;;
5022;SDS011;2530;47.990;7.866;2024-03-25T07:39:59;3.55;;;3.10;;
5022;SDS011;2530;47.990;7.866;2024-03-25T07:42:24;4.28;;;3.00;;
5022;SDS011;2530;47.990;7.866;2024-03-25T07:44:50;3.28;;;2.88;;
5022;SDS011;2530;47.990;7.866;2024-03-25T07:47:16;3.77;;;2.80;;
5022;SDS011;2530;47.990;7.866;2024-03-25T07:49:41;3.57;;;2.90;;
5022;SDS011;2530;47.990;7.866;2024-03-25T07:52:07;3.80;;;2.90;;
5022;SDS011;2530;47.990;7.866;2024-03-25T07:54:32;4.20;;;2.50;;
5022;SDS011;2530;47.990;7.866;2024-03-25T07:56:58;4.72;;;2.50;;
5022;SDS011;2530;47.990;7.866;2024-03-25T07:59:24;4.57;;;2.70;;
5022;SDS011;2530;47.990;7.866;2024-03-25T08:01:49;4.00;;;2.50;;
5022;SDS011;2530;47.990;7.866;2024-03-25T08:04:16;2.40;;;2.20;;
5022;SDS011;2530;47.990;7.866;2024-03-25T08:06:41;3.80;;;2.20;;
5022;SDS011;2530;47.990;7.866;2024-03-25T08:09:07;3.13;;;2.30;;
5022;SDS011;2530;47.990;7.866;2024-03-25T08:11:34;3.80;;;2.35;;
5022;SDS011;2530;47.990;7.866;2024-03-25T08:14:00;4.20;;;2.40;;
5022;SDS011;2530;47.990;7.866;2024-03-25T08:16:25;3.90;;;2.40;;
5022;SDS011;2530;47.990;7.866;2024-03-25T08:18:51;3.25;;;2.20;;
5022;SDS011;2530;47.990;7.866;2024-03-25T08:21:16;5.50;;;2.50;;
5022;SDS011;2530;47.990;7.866;2024-03-25T08:23:45;3.20;;;2.10;;
5022;SDS011;2530;47.990;7.866;2024-03-25T08:26:10;2.70;;;1.90;;
5022;SDS011;2530;47.990;7.866;2024-03-25T08:28:36;2.20;;;2.00;;
5022;SDS011;2530;47.990;7.866;2024-03-25T08:31:02;2.60;;;2.05;;
5022;SDS011;2530;47.990;7.866;2024-03-25T08:33:28;4.55;;;2.10;;
5022;SDS011;2530;47.990;7.866;2024-03-25T08:35:54;2.40;;;2.10;;
5022;SDS011;2530;47.990;7.866;2024-03-25T08:38:19;3.83;;;2.50;;
5022;SDS011;2530;47.990;7.866;2024-03-25T08:40:45;4.00;;;2.07;;
5022;SDS011;2530;47.990;7.866;2024-03-25T08:43:10;3.60;;;2.30;;
5022;SDS011;2530;47.990;7.866;2024-03-25T08:45:36;4.03;;;2.00;;
5022;SDS011;2530;47.990;7.866;2024-03-25T08:48:01;3.80;;;2.10;;
5022;SDS011;2530;47.990;7.866;2024-03-25T08:50:27;3.30;;;2.20;;
5022;SDS011;2530;47.990;7.866;2024-03-25T08:52:52;2.20;;;1.60;;
5022;SDS011;2530;47.990;7.866;2024-03-25T08:55:19;4.60;;;1.58;;
5022;SDS011;2530;47.990;7.866;2024-03-25T08:57:44;2.13;;;1.60;;
5022;SDS011;2530;47.990;7.866;2024-03-25T09:00:10;3.80;;;1.40;;
5022;SDS011;2530;47.990;7.866;2024-03-25T09:02:37;2.80;;;1.67;;
5022;SDS011;2530;47.990;7.866;2024-03-25T09:05:02;1.90;;;1.50;;
5022;SDS011;2530;47.990;7.866;2024-03-25T09:07:32;2.35;;;1.90;;
5022;SDS011;2530;47.990;7.866;2024-03-25T09:09:58;1.58;;;1.40;;
5022;SDS011;2530;47.990;7.866;2024-03-25T09:12:42;1.80;;;1.50;;
5022;SDS011;2530;47.990;7.866;2024-03-25T09:15:07;1.40;;;1.30;;
5022;SDS011;2530;47.990;7.866;2024-03-25T09:17:34;1.80;;;1.70;;
5022;SDS011;2530;47.990;7.866;2024-03-25T09:22:38;1.80;;;1.40;;
5022;SDS011;2530;47.990;7.866;2024-03-25T09:25:03;1.60;;;1.33;;
5022;SDS011;2530;47.990;7.866;2024-03-25T09:27:29;1.40;;;1.23;;
5022;SDS011;2530;47.990;7.866;2024-03-25T09:29:54;3.33;;;1.35;;
5022;SDS011;2530;47.990;7.866;2024-03-25T09:32:20;1.50;;;1.15;;
5022;SDS011;2530;47.990;7.866;2024-03-25T09:34:45;3.63;;;1.20;;
5022;SDS011;2530;47.990;7.866;2024-03-25T09:37:12;1.92;;;1.40;;
5022;SDS011;2530;47.990;7.866;2024-03-25T09:39:38;2.20;;;1.20;;
5022;SDS011;2530;47.990;7.866;2024-03-25T09:42:03;1.20;;;1.10;;
5022;SDS011;2530;47.990;7.866;2024-03-25T09:44:32;1.83;;;1.00;;
5022;SDS011;2530;47.990;7.866;2024-03-25T09:46:58;1.50;;;1.20;;
5022;SDS011;2530;47.990;7.866;2024-03-25T09:49:25;1.95;;;1.10;;
5022;SDS011;2530;47.990;7.866;2024-03-25T09:51:52;3.20;;;1.10;;
5022;SDS011;2530;47.990;7.866;2024-03-25T09:54:17;2.05;;;1.10;;
5022;SDS011;2530;47.990;7.866;2024-03-25T09:56:46;1.00;;;0.90;;
5022;SDS011;2530;47.990;7.866;2024-03-25T09:59:13;2.92;;;1.25;;
5022;SDS011;2530;47.990;7.866;2024-03-25T10:01:39;2.10;;;1.10;;
5022;SDS011;2530;47.990;7.866;2024-03-25T10:04:04;1.50;;;0.90;;
5022;SDS011;2530;47.990;7.866;2024-03-25T10:06:36;1.65;;;1.20;;
5022;SDS011;2530;47.990;7.866;2024-03-25T10:09:06;1.40;;;1.20;;
5022;SDS011;2530;47.990;7.866;2024-03-25T10:11:32;2.20;;;1.20;;
5022;SDS011;2530;47.990;7.866;2024-03-25T10:14:00;2.35;;;1.48;;
5022;SDS011;2530;47.990;7.866;2024-03-25T10:16:29;2.40;;;1.00;;
5022;SDS011;2530;47.990;7.866;2024-03-25T10:18:54;1.90;;;0.87;;
5022;SDS011;2530;47.990;7.866;2024-03-25T10:21:20;2.10;;;1.00;;
5022;SDS011;2530;47.990;7.866;2024-03-25T10:23:47;1.83;;;1.00;;
5022;SDS011;2530;47.990;7.866;2024-03-25T10:26:29;2.50;;;1.10;;
5022;SDS011;2530;47.990;7.866;2024-03-25T10:29:03;3.00;;;1.55;;
5022;SDS011;2530;47.990;7.866;2024-03-25T10:31:38;1.90;;;1.20;;
5022;SDS011;2530;47.990;7.866;2024-03-25T10:34:04;1.90;;;1.10;;
5022;SDS011;2530;47.990;7.866;2024-03-25T10:36:29;1.37;;;0.93;;
5022;SDS011;2530;47.990;7.866;2024-03-25T10:38:56;2.05;;;1.20;;
5022;SDS011;2530;47.990;7.866;2024-03-25T10:41:32;1.90;;;1.20;;
5022;SDS011;2530;47.990;7.866;2024-03-25T10:44:00;1.23;;;1.03;;
5022;SDS011;2530;47.990;7.866;2024-03-25T10:46:31;1.20;;;1.00;;
5022;SDS011;2530;47.990;7.866;2024-03-25T10:49:01;2.15;;;1.30;;
5022;SDS011;2530;47.990;7.866;2024-03-25T10:51:36;2.40;;;1.40;;
5022;SDS011;2530;47.990;7.866;2024-03-25T10:54:04;2.47;;;1.30;;
5022;SDS011;2530;47.990;7.866;2024-03-25T10:56:31;1.48;;;1.05;;
5022;SDS011;2530;47.990;7.866;2024-03-25T10:58:57;2.53;;;1.10;;
5022;SDS011;2530;47.990;7.866;2024-03-25T11:01:23;2.55;;;1.25;;
5022;SDS011;2530;47.990;7.866;2024-03-25T11:03:49;2.20;;;1.50;;
5022;SDS011;2530;47.990;7.866;2024-03-25T11:06:15;2.22;;;1.60;;
5022;SDS011;2530;47.990;7.866;2024-03-25T11:08:42;2.80;;;1.20;;
5022;SDS011;2530;47.990;7.866;2024-03-25T11:11:11;1.73;;;1.40;;
5022;SDS011;2530;47.990;7.866;2024-03-25T11:13:37;1.90;;;1.40;;
5022;SDS011;2530;47.990;7.866;2024-03-25T11:16:04;2.95;;;1.50;;
5022;SDS011;2530;47.990;7.866;2024-03-25T11:18:32;2.30;;;1.20;;
5022;SDS011;2530;47.990;7.866;2024-03-25T11:21:02;3.10;;;1.30;;
5022;SDS011;2530;47.990;7.866;2024-03-25T11:23:38;1.48;;;1.10;;
5022;SDS011;2530;47.990;7.866;2024-03-25T11:26:16;1.70;;;1.20;;
5022;SDS011;2530;47.990;7.866;2024-03-25T11:28:43;2.70;;;1.10;;
5022;SDS011;2530;47.990;7.866;2024-03-25T11:31:10;3.00;;;1.10;;
5022;SDS011;2530;47.990;7.866;2024-03-25T11:33:39;1.20;;;1.10;;
5022;SDS011;2530;47.990;7.866;2024-03-25T11:36:04;2.20;;;1.30;;
5022;SDS011;2530;47.990;7.866;2024-03-25T11:38:30;1.43;;;1.00;;
5022;SDS011;2530;47.990;7.866;2024-03-25T11:40:56;2.50;;;1.10;;
5022;SDS011;2530;47.990;7.866;2024-03-25T11:43:22;1.60;;;0.90;;
5022;SDS011;2530;47.990;7.866;2024-03-25T11:45:48;3.15;;;1.30;;
5022;SDS011;2530;47.990;7.866;2024-03-25T11:48:15;2.00;;;1.60;;
5022;SDS011;2530;47.990;7.866;2024-03-25T11:50:41;2.80;;;1.30;;
5022;SDS011;2530;47.990;7.866;2024-03-25T11:53:13;1.95;;;0.90;;
5022;SDS011;2530;47.990;7.866;2024-03-25T11:56:11;2.65;;;1.05;;
5022;SDS011;2530;47.990;7.866;2024-03-25T11:58:41;1.50;;;1.00;;
5022;SDS011;2530;47.990;7.866;2024-03-25T12:01:07;1.60;;;0.80;;
5022;SDS011;2530;47.990;7.866;2024-03-25T12:06:38;1.95;;;1.00;;
5022;SDS011;2530;47.990;7.866;2024-03-25T12:09:04;1.48;;;1.00;;
5022;SDS011;2530;47.990;7.866;2024-03-25T12:11:51;0.97;;;0.87;;
5022;SDS011;2530;47.990;7.866;2024-03-25T12:14:17;2.10;;;1.00;;
5022;SDS011;2530;47.990;7.866;2024-03-25T12:16:46;1.60;;;0.80;;
5022;SDS011;2530;47.990;7.866;2024-03-25T12:19:15;1.52;;;0.90;;
5022;SDS011;2530;47.990;7.866;2024-03-25T12:21:43;1.30;;;0.80;;
5022;SDS011;2530;47.990;7.866;2024-03-25T12:24:09;1.20;;;0.82;;
5022;SDS011;2530;47.990;7.866;2024-03-25T12:26:38;1.23;;;1.00;;
5022;SDS011;2530;47.990;7.866;2024-03-25T12:29:11;1.65;;;1.10;;
5022;SDS011;2530;47.990;7.866;2024-03-25T12:31:55;1.20;;;1.00;;
5022;SDS011;2530;47.990;7.866;2024-03-25T12:34:26;2.10;;;1.00;;
5022;SDS011;2530;47.990;7.866;2024-03-25T12:37:14;2.45;;;1.20;;
5022;SDS011;2530;47.990;7.866;2024-03-25T12:39:47;2.90;;;1.20;;
5022;SDS011;2530;47.990;7.866;2024-03-25T12:42:16;1.80;;;0.98;;
5022;SDS011;2530;47.990;7.866;2024-03-25T12:44:41;2.40;;;1.20;;
5022;SDS011;2530;47.990;7.866;2024-03-25T12:47:07;1.10;;;1.00;;
5022;SDS011;2530;47.990;7.866;2024-03-25T12:49:33;1.90;;;1.10;;
5022;SDS011;2530;47.990;7.866;2024-03-25T12:51:58;1.60;;;1.10;;
5022;SDS011;2530;47.990;7.866;2024-03-25T12:54:24;1.43;;;1.00;;
5022;SDS011;2530;47.990;7.866;2024-03-25T12:56:49;2.20;;;1.10;;
5022;SDS011;2530;47.990;7.866;2024-03-25T12:59:14;2.30;;;0.77;;
5022;SDS011;2530;47.990;7.866;2024-03-25T13:01:40;1.17;;;1.08;;
5022;SDS011;2530;47.990;7.866;2024-03-25T13:04:09;1.50;;;0.88;;
5022;SDS011;2530;47.990;7.866;2024-03-25T13:06:34;1.92;;;0.80;;
5022;SDS011;2530;47.990;7.866;2024-03-25T13:09:00;3.00;;;1.20;;
5022;SDS011;2530;47.990;7.866;2024-03-25T13:11:26;1.70;;;1.00;;
5022;SDS011;2530;47.990;7.866;2024-03-25T13:13:51;1.50;;;0.90;;
5022;SDS011;2530;47.990;7.866;2024-03-25T13:16:17;1.03;;;0.93;;
5022;SDS011;2530;47.990;7.866;2024-03-25T13:18:42;1.40;;;0.93;;
5022;SDS011;2530;47.990;7.866;2024-03-25T13:21:08;1.50;;;1.00;;
5022;SDS011;2530;47.990;7.866;2024-03-25T13:23:33;2.00;;;1.07;;
5022;SDS011;2530;47.990;7.866;2024-03-25T13:25:59;1.60;;;0.90;;
5022;SDS011;2530;47.990;7.866;2024-03-25T13:28:24;2.00;;;1.17;;
5022;SDS011;2530;47.990;7.866;2024-03-25T13:30:53;1.90;;;1.10;;
5022;SDS011;2530;47.990;7.866;2024-03-25T13:33:18;1.63;;;0.90;;
5022;SDS011;2530;47.990;7.866;2024-03-25T13:35:44;1.83;;;0.80;;
5022;SDS011;2530;47.990;7.866;2024-03-25T13:38:10;1.30;;;0.70;;
5022;SDS011;2530;47.990;7.866;2024-03-25T13:40:36;1.55;;;0.73;;
5022;SDS011;2530;47.990;7.866;2024-03-25T13:43:01;1.73;;;0.80;;
5022;SDS011;2530;47.990;7.866;2024-03-25T13:45:27;1.40;;;0.70;;
5022;SDS011;2530;47.990;7.866;2024-03-25T13:47:52;1.87;;;0.90;;
5022;SDS011;2530;47.990;7.866;2024-03-25T13:50:18;0.90;;;0.70;;
5022;SDS011;2530;47.990;7.866;2024-03-25T13:52:47;1.20;;;0.70;;
5022;SDS011;2530;47.990;7.866;2024-03-25T13:55:12;2.57;;;0.80;;
5022;SDS011;2530;47.990;7.866;2024-03-25T13:57:38;2.65;;;1.00;;
5022;SDS011;2530;47.990;7.866;2024-03-25T14:00:04;1.70;;;0.70;;
5022;SDS011;2530;47.990;7.866;2024-03-25T14:02:33;1.70;;;0.88;;
5022;SDS011;2530;47.990;7.866;2024-03-25T14:05:00;1.17;;;0.95;;
5022;SDS011;2530;47.990;7.866;2024-03-25T14:07:26;1.98;;;1.00;;
5022;SDS011;2530;47.990;7.866;2024-03-25T14:09:52;1.87;;;0.70;;
5022;SDS011;2530;47.990;7.866;2024-03-25T14:12:18;1.60;;;1.00;;
5022;SDS011;2530;47.990;7.866;2024-03-25T14:14:46;1.40;;;1.10;;
5022;SDS011;2530;47.990;7.866;2024-03-25T14:17:12;1.00;;;0.80;;
5022;SDS011;2530;47.990;7.866;2024-03-25T14:19:37;2.05;;;0.70;;
5022;SDS011;2530;47.990;7.866;2024-03-25T14:22:03;1.97;;;0.70;;
5022;SDS011;2530;47.990;7.866;2024-03-25T14:24:28;1.60;;;0.60;;
5022;SDS011;2530;47.990;7.866;2024-03-25T14:26:54;0.82;;;0.70;;
5022;SDS011;2530;47.990;7.866;2024-03-25T14:29:20;1.40;;;0.90;;
5022;SDS011;2530;47.990;7.866;2024-03-25T14:31:45;1.50;;;1.00;;
5022;SDS011;2530;47.990;7.866;2024-03-25T14:34:11;1.90;;;0.90;;
5022;SDS011;2530;47.990;7.866;2024-03-25T14:36:37;0.93;;;0.80;;
5022;SDS011;2530;47.990;7.866;2024-03-25T14:39:02;0.95;;;0.77;;
5022;SDS011;2530;47.990;7.866;2024-03-25T14:41:29;1.83;;;0.80;;
5022;SDS011;2530;47.990;7.866;2024-03-25T14:44:03;1.10;;;0.73;;
5022;SDS011;2530;47.990;7.866;2024-03-25T14:46:29;0.80;;;0.70;;
5022;SDS011;2530;47.990;7.866;2024-03-25T14:48:54;1.10;;;1.00;;
5022;SDS011;2530;47.990;7.866;2024-03-25T14:51:20;1.90;;;0.90;;
5022;SDS011;2530;47.990;7.866;2024-03-25T14:53:45;3.20;;;1.17;;
5022;SDS011;2530;47.990;7.866;2024-03-25T14:56:11;1.10;;;0.70;;
5022;SDS011;2530;47.990;7.866;2024-03-25T14:58:37;1.67;;;0.77;;
5022;SDS011;2530;47.990;7.866;2024-03-25T15:01:02;2.28;;;0.98;;
5022;SDS011;2530;47.990;7.866;2024-03-25T15:03:28;0.93;;;0.70;;
5022;SDS011;2530;47.990;7.866;2024-03-25T15:05:53;1.17;;;0.60;;
5022;SDS011;2530;47.990;7.866;2024-03-25T15:08:19;1.77;;;0.97;;
5022;SDS011;2530;47.990;7.866;2024-03-25T15:10:47;3.15;;;1.20;;
5022;SDS011;2530;47.990;7.866;2024-03-25T15:13:14;1.42;;;0.90;;
5022;SDS011;2530;47.990;7.866;2024-03-25T15:15:39;1.20;;;0.87;;
5022;SDS011;2530;47.990;7.866;2024-03-25T15:18:07;1.55;;;1.00;;
5022;SDS011;2530;47.990;7.866;2024-03-25T15:20:32;1.20;;;0.93;;